Terminal Aerodrome Forecast
Issued by NWS Shreveport, LA

Home | Current Version | Previous Version | Text Only | Print | Product List | Glossary On
Versions: 1 2 3 4 5 6 7 8 9 10 11 12 13 14 15 16
000
FTUS44 KSHV 261502 AAB
TAFSHV
TAF AMD
KSHV 261502Z 2615/2712 17010KT P6SM VCSH SCT045 OVC060
     FM261700 19017G27KT P6SM VCTS OVC025CB
     FM261900 21018G28KT 4SM TSRA OVC030CB
      TEMPO 2620/2623 VRB20G40KT 1SM +TSRA BR OVC015CB
     FM270100 32015G25KT P6SM OVC025
     FM270600 30007KT P6SM SKC=

USA.gov is the U.S. government's official web portal to all federal, state and local government web resources and services.